Time;durP1;ratioP1;P1;durP2;ratioP2;P2;SDS_P1;SDS_P2;PMS_P1;PMS_P2;Temp;Humidity;BMP_temperature;BMP_pressure;BME280_temperature;BME280_humidity;BME280_pressure;Samples;Min_cycle;Max_cycle;Signal;HPM_P1;HPM_P2
2022/07/20 00:01:51;;;;;;;7.37;4.83;;;;;;;;;;4993244;28;20404;-73
2022/07/20 00:04:17;;;;;;;5.97;3.90;;;;;;;;;;4992649;28;20486;-74
2022/07/20 00:06:43;;;;;;;7.10;4.87;;;;;;;;;;4992943;28;20443;-73
2022/07/20 00:11:54;;;;;;;6.63;4.50;;;;;;;;;;4993629;28;20454;-73
2022/07/20 00:14:21;;;;;;;6.13;4.37;;;;;;;;;;4992809;28;20452;-73
2022/07/20 00:16:47;;;;;;;6.77;5.10;;;;;;;;;;4993277;28;20553;-74
2022/07/20 00:19:13;;;;;;;5.10;4.53;;;;;;;;;;4994616;28;20454;-74
2022/07/20 00:21:39;;;;;;;7.63;4.33;;;;;;;;;;5002909;28;20970;-74
2022/07/20 00:24:05;;;;;;;7.03;4.47;;;;;;;;;;4996358;28;20530;-74
2022/07/20 00:26:31;;;;;;;6.93;3.87;;;;;;;;;;4996694;28;20418;-73
2022/07/20 00:28:57;;;;;;;6.90;4.10;;;;;;;;;;4996507;28;20412;-74
2022/07/20 00:31:23;;;;;;;5.60;4.20;;;;;;;;;;4996533;28;20411;-73
2022/07/20 00:33:50;;;;;;;5.90;4.23;;;;;;;;;;4996017;28;20427;-74
2022/07/20 00:36:17;;;;;;;6.93;4.20;;;;;;;;;;4996305;28;20447;-73
2022/07/20 00:38:43;;;;;;;7.90;4.10;;;;;;;;;;4996325;28;20429;-73
2022/07/20 00:41:09;;;;;;;7.60;4.63;;;;;;;;;;4996285;28;20427;-73
2022/07/20 00:43:53;;;;;;;5.70;4.17;;;;;;;;;;4995882;28;20433;-74
2022/07/20 00:46:19;;;;;;;10.20;5.20;;;;;;;;;;4996297;28;20414;-73
2022/07/20 00:48:46;;;;;;;9.40;4.77;;;;;;;;;;4996100;28;20498;-73
2022/07/20 00:51:12;;;;;;;7.27;4.80;;;;;;;;;;4996009;28;20498;-74
2022/07/20 00:53:38;;;;;;;11.43;5.10;;;;;;;;;;4995710;28;20508;-73
2022/07/20 00:56:04;;;;;;;9.03;4.90;;;;;;;;;;4978590;28;20523;-73
2022/07/20 00:58:30;;;;;;;7.33;4.23;;;;;;;;;;4978547;28;20477;-73
2022/07/20 01:00:56;;;;;;;11.20;4.97;;;;;;;;;;4996301;28;20416;-74
2022/07/20 01:03:22;;;;;;;7.20;4.90;;;;;;;;;;4978320;28;20439;-74
2022/07/20 01:05:48;;;;;;;11.03;4.50;;;;;;;;;;4995934;28;20434;-74
2022/07/20 01:08:14;;;;;;;7.43;4.37;;;;;;;;;;4995865;28;20407;-73
2022/07/20 01:10:40;;;;;;;8.57;4.93;;;;;;;;;;4995961;28;20424;-73
2022/07/20 01:13:06;;;;;;;8.90;4.97;;;;;;;;;;4995303;28;20517;-73
2022/07/20 01:15:32;;;;;;;15.83;5.17;;;;;;;;;;4995845;28;20572;-74
2022/07/20 01:17:58;;;;;;;7.00;4.80;;;;;;;;;;4995672;28;20478;-74
2022/07/20 01:20:25;;;;;;;9.90;4.57;;;;;;;;;;4995581;28;20427;-74
2022/07/20 01:22:51;;;;;;;10.67;5.20;;;;;;;;;;4995385;28;20576;-73
2022/07/20 01:25:17;;;;;;;6.90;5.33;;;;;;;;;;4995623;28;20410;-74
2022/07/20 01:27:44;;;;;;;7.27;4.53;;;;;;;;;;4995641;28;20626;-74
2022/07/20 01:30:10;;;;;;;9.10;4.83;;;;;;;;;;4995463;28;20607;-73
2022/07/20 01:32:36;;;;;;;10.00;4.97;;;;;;;;;;4977653;28;20916;-74
2022/07/20 01:35:02;;;;;;;10.70;4.93;;;;;;;;;;4995285;28;20423;-73
2022/07/20 01:37:29;;;;;;;9.30;4.97;;;;;;;;;;4995119;28;20474;-74
2022/07/20 01:39:55;;;;;;;6.77;4.73;;;;;;;;;;4978223;28;20821;-73
2022/07/20 01:42:22;;;;;;;12.23;5.43;;;;;;;;;;4994967;28;20411;-73
2022/07/20 01:44:48;;;;;;;7.23;4.87;;;;;;;;;;4995021;28;20436;-73
2022/07/20 01:47:14;;;;;;;19.23;5.03;;;;;;;;;;4995082;28;20419;-74
2022/07/20 01:49:40;;;;;;;8.50;4.23;;;;;;;;;;4994933;28;20415;-74
2022/07/20 01:52:06;;;;;;;11.40;5.40;;;;;;;;;;4995106;28;20911;-74
2022/07/20 01:54:32;;;;;;;9.90;5.00;;;;;;;;;;4994663;28;20446;-74
2022/07/20 01:56:58;;;;;;;7.87;4.97;;;;;;;;;;4977483;28;20513;-73
2022/07/20 01:59:24;;;;;;;8.03;4.87;;;;;;;;;;4977602;28;20511;-74
2022/07/20 02:01:50;;;;;;;12.40;4.83;;;;;;;;;;4995515;28;20566;-73
2022/07/20 02:04:16;;;;;;;9.57;4.50;;;;;;;;;;4994880;28;20505;-73
2022/07/20 02:06:42;;;;;;;8.60;4.70;;;;;;;;;;4995398;28;20496;-73
2022/07/20 02:09:08;;;;;;;5.80;4.30;;;;;;;;;;4995327;28;20932;-74
2022/07/20 02:11:34;;;;;;;13.63;5.60;;;;;;;;;;4995241;28;20426;-73
2022/07/20 02:13:59;;;;;;;10.53;4.67;;;;;;;;;;4994783;28;20940;-73
2022/07/20 02:16:25;;;;;;;7.37;4.27;;;;;;;;;;4995293;28;20454;-73
2022/07/20 02:18:55;;;;;;;5.90;4.17;;;;;;;;;;4998051;28;20540;-73
2022/07/20 02:21:22;;;;;;;6.03;4.13;;;;;;;;;;4995220;28;20419;-73
2022/07/20 02:23:48;;;;;;;7.63;4.30;;;;;;;;;;4994582;28;20423;-73
2022/07/20 02:26:14;;;;;;;6.60;4.40;;;;;;;;;;4995324;28;20752;-73
2022/07/20 02:28:40;;;;;;;6.77;3.57;;;;;;;;;;4995014;28;20820;-73
2022/07/20 02:31:07;;;;;;;8.63;4.20;;;;;;;;;;4994990;28;20412;-73
2022/07/20 02:33:33;;;;;;;15.97;4.27;;;;;;;;;;4994443;28;20485;-74
2022/07/20 02:35:59;;;;;;;10.23;4.20;;;;;;;;;;4994631;28;20407;-73
2022/07/20 02:38:26;;;;;;;7.97;3.80;;;;;;;;;;4994809;28;20553;-73
2022/07/20 02:40:52;;;;;;;5.70;3.77;;;;;;;;;;4994785;28;20938;-73
2022/07/20 02:43:18;;;;;;;11.63;3.80;;;;;;;;;;4993718;28;20538;-73
2022/07/20 02:45:44;;;;;;;8.07;3.97;;;;;;;;;;4994513;28;20915;-74
2022/07/20 02:48:10;;;;;;;10.20;4.87;;;;;;;;;;4994361;28;20975;-74
2022/07/20 02:50:38;;;;;;;8.07;4.40;;;;;;;;;;4977233;28;20469;-73
2022/07/20 02:53:04;;;;;;;8.03;4.73;;;;;;;;;;4994190;28;20446;-73
2022/07/20 02:55:30;;;;;;;8.60;5.57;;;;;;;;;;4994506;28;20509;-74
2022/07/20 02:57:56;;;;;;;8.43;4.90;;;;;;;;;;4994256;28;20467;-74
2022/07/20 03:00:22;;;;;;;7.90;4.70;;;;;;;;;;4994261;28;20403;-73
2022/07/20 03:02:48;;;;;;;9.13;4.87;;;;;;;;;;4993928;28;20822;-73
2022/07/20 03:05:15;;;;;;;7.90;4.13;;;;;;;;;;4994214;28;20537;-73
2022/07/20 03:07:41;;;;;;;9.17;4.63;;;;;;;;;;4994352;28;20423;-73
2022/07/20 03:10:08;;;;;;;9.23;4.47;;;;;;;;;;4995193;28;20411;-74
2022/07/20 03:12:34;;;;;;;7.13;4.07;;;;;;;;;;4999730;28;20426;-73
2022/07/20 03:15:00;;;;;;;4.60;3.43;;;;;;;;;;4994660;28;20411;-74
2022/07/20 03:17:26;;;;;;;7.73;4.13;;;;;;;;;;4994794;28;20824;-73
2022/07/20 03:19:53;;;;;;;8.17;3.60;;;;;;;;;;4976712;28;20946;-74
2022/07/20 03:22:19;;;;;;;5.00;4.00;;;;;;;;;;4993689;28;20958;-74
2022/07/20 03:24:45;;;;;;;9.00;3.90;;;;;;;;;;4993866;28;20447;-73
2022/07/20 03:27:11;;;;;;;6.90;4.57;;;;;;;;;;4994019;28;20442;-73
2022/07/20 03:29:37;;;;;;;8.80;4.67;;;;;;;;;;4976474;28;20431;-73
2022/07/20 03:32:03;;;;;;;8.13;4.37;;;;;;;;;;4994150;28;20423;-73
2022/07/20 03:34:29;;;;;;;5.80;4.63;;;;;;;;;;4993401;28;20432;-74
2022/07/20 03:36:55;;;;;;;9.03;4.63;;;;;;;;;;4993897;28;20451;-73
2022/07/20 03:39:21;;;;;;;14.60;4.13;;;;;;;;;;4993934;28;20411;-74
2022/07/20 03:41:47;;;;;;;9.23;5.00;;;;;;;;;;4993921;28;20919;-73
2022/07/20 03:44:13;;;;;;;9.87;4.80;;;;;;;;;;4993329;28;20427;-73
2022/07/20 03:46:39;;;;;;;6.00;4.33;;;;;;;;;;4993733;28;20875;-74
2022/07/20 03:49:05;;;;;;;7.50;4.43;;;;;;;;;;4993781;28;20430;-73
2022/07/20 03:51:31;;;;;;;10.30;4.40;;;;;;;;;;4993846;28;20427;-73
2022/07/20 03:53:57;;;;;;;11.03;4.30;;;;;;;;;;4993634;28;20854;-73
2022/07/20 03:56:23;;;;;;;6.90;4.50;;;;;;;;;;4998230;28;20626;-73
2022/07/20 03:58:49;;;;;;;7.57;5.00;;;;;;;;;;4997975;28;20483;-73
2022/07/20 04:01:15;;;;;;;7.60;4.20;;;;;;;;;;4997625;28;20614;-73
2022/07/20 04:03:41;;;;;;;7.17;4.30;;;;;;;;;;4980072;28;20606;-73
2022/07/20 04:06:07;;;;;;;8.97;4.07;;;;;;;;;;4997690;28;20522;-73
2022/07/20 04:08:33;;;;;;;11.70;5.27;;;;;;;;;;4997488;28;20647;-73
2022/07/20 04:10:59;;;;;;;7.80;4.47;;;;;;;;;;4997549;28;20416;-73
2022/07/20 04:13:25;;;;;;;9.10;4.47;;;;;;;;;;4996982;28;20437;-74
2022/07/20 04:15:51;;;;;;;8.83;4.50;;;;;;;;;;4997597;28;20795;-73
2022/07/20 04:18:17;;;;;;;8.93;4.00;;;;;;;;;;4997950;28;20471;-73
2022/07/20 04:20:43;;;;;;;9.97;4.07;;;;;;;;;;4997445;28;20420;-73
2022/07/20 04:23:11;;;;;;;7.07;4.47;;;;;;;;;;4979934;28;20458;-73
2022/07/20 04:25:37;;;;;;;6.50;4.30;;;;;;;;;;4997413;28;20442;-73
2022/07/20 04:28:03;;;;;;;10.43;6.10;;;;;;;;;;4997360;28;20772;-73
2022/07/20 04:30:31;;;;;;;7.43;5.80;;;;;;;;;;4997257;28;20868;-74
2022/07/20 04:32:57;;;;;;;20.90;6.80;;;;;;;;;;4979863;28;20518;-73
2022/07/20 04:35:23;;;;;;;8.40;5.90;;;;;;;;;;4997154;28;20896;-73
2022/07/20 04:37:49;;;;;;;11.07;6.10;;;;;;;;;;4997097;28;20498;-74
2022/07/20 04:40:15;;;;;;;17.63;6.40;;;;;;;;;;4997194;28;20423;-74
2022/07/20 04:42:42;;;;;;;9.40;5.83;;;;;;;;;;4978994;28;20848;-75
2022/07/20 04:45:08;;;;;;;8.60;6.30;;;;;;;;;;4996756;28;20454;-74
2022/07/20 04:47:34;;;;;;;12.53;6.40;;;;;;;;;;4979387;28;20430;-74
2022/07/20 04:50:00;;;;;;;9.97;7.60;;;;;;;;;;4996729;28;20427;-75
2022/07/20 04:52:26;;;;;;;12.33;8.20;;;;;;;;;;4996487;28;20426;-75
2022/07/20 04:54:52;;;;;;;9.83;8.50;;;;;;;;;;4996605;28;20928;-75
2022/07/20 04:57:18;;;;;;;11.03;9.20;;;;;;;;;;4996464;28;20465;-73
2022/07/20 04:59:44;;;;;;;13.63;8.20;;;;;;;;;;4996797;28;20502;-74
2022/07/20 05:02:10;;;;;;;13.47;9.30;;;;;;;;;;4996940;28;20419;-75
2022/07/20 05:04:36;;;;;;;19.53;10.63;;;;;;;;;;4995986;28;20817;-74
2022/07/20 05:07:02;;;;;;;16.57;10.30;;;;;;;;;;4996002;28;20910;-74
2022/07/20 05:09:28;;;;;;;13.03;10.90;;;;;;;;;;4979040;28;20422;-74
2022/07/20 05:11:54;;;;;;;13.80;11.63;;;;;;;;;;4979037;28;20943;-74
2022/07/20 05:14:20;;;;;;;15.27;11.80;;;;;;;;;;4996217;28;20475;-74
2022/07/20 05:16:46;;;;;;;17.00;12.30;;;;;;;;;;4996320;28;20455;-75
2022/07/20 05:19:12;;;;;;;23.60;13.23;;;;;;;;;;4996363;28;20411;-74
2022/07/20 05:21:38;;;;;;;15.83;11.80;;;;;;;;;;4996379;28;20923;-74
2022/07/20 05:24:04;;;;;;;15.83;12.60;;;;;;;;;;4978374;28;20459;-74
2022/07/20 05:26:30;;;;;;;21.03;14.40;;;;;;;;;;4996076;28;20412;-74
2022/07/20 05:28:56;;;;;;;17.83;14.60;;;;;;;;;;4996074;28;20422;-75
2022/07/20 05:31:22;;;;;;;23.83;15.30;;;;;;;;;;4996108;28;20411;-74
2022/07/20 05:33:48;;;;;;;20.87;15.80;;;;;;;;;;4995790;28;20985;-74
2022/07/20 05:36:15;;;;;;;23.03;15.47;;;;;;;;;;4995948;28;20412;-75
2022/07/20 05:38:41;;;;;;;23.87;16.87;;;;;;;;;;4995983;28;20463;-74
2022/07/20 05:41:07;;;;;;;28.57;17.33;;;;;;;;;;4998884;28;20492;-74
2022/07/20 05:43:33;;;;;;;22.83;15.40;;;;;;;;;;4996255;28;20423;-74
2022/07/20 05:45:59;;;;;;;19.40;16.70;;;;;;;;;;4978524;28;20498;-74
2022/07/20 05:48:25;;;;;;;24.67;16.23;;;;;;;;;;4995886;28;20426;-74
2022/07/20 05:50:51;;;;;;;21.50;16.43;;;;;;;;;;4995815;28;20502;-74
2022/07/20 05:53:17;;;;;;;27.90;17.53;;;;;;;;;;4995338;28;20482;-75
2022/07/20 05:55:46;;;;;;;21.73;17.17;;;;;;;;;;4995573;28;20485;-74
2022/07/20 05:58:12;;;;;;;19.87;17.83;;;;;;;;;;4995521;28;20466;-73
2022/07/20 06:00:38;;;;;;;25.30;17.70;;;;;;;;;;4995559;28;20823;-74
2022/07/20 06:03:04;;;;;;;24.27;17.77;;;;;;;;;;4977657;28;20447;-74
2022/07/20 06:05:30;;;;;;;26.17;18.33;;;;;;;;;;4995077;28;20786;-74
2022/07/20 06:08:00;;;;;;;26.47;19.50;;;;;;;;;;4995422;28;20446;-74
2022/07/20 06:10:26;;;;;;;23.50;18.40;;;;;;;;;;4995538;28;20411;-75
2022/07/20 06:12:54;;;;;;;24.90;16.83;;;;;;;;;;4995231;28;20786;-74
2022/07/20 06:15:20;;;;;;;25.47;18.07;;;;;;;;;;4995843;28;20408;-74
2022/07/20 06:17:47;;;;;;;23.33;18.13;;;;;;;;;;4994264;28;20826;-75
2022/07/20 06:20:14;;;;;;;20.00;17.73;;;;;;;;;;4977615;28;20431;-74
2022/07/20 06:22:41;;;;;;;30.13;16.87;;;;;;;;;;4995234;28;20419;-74
2022/07/20 06:25:07;;;;;;;24.20;18.27;;;;;;;;;;4995500;28;20955;-74
2022/07/20 06:27:33;;;;;;;25.07;19.83;;;;;;;;;;4995154;28;20400;-75
2022/07/20 06:30:00;;;;;;;27.70;18.53;;;;;;;;;;4995156;28;20840;-75
2022/07/20 06:32:26;;;;;;;21.80;19.00;;;;;;;;;;4977248;28;20543;-75
2022/07/20 06:34:52;;;;;;;27.13;18.33;;;;;;;;;;4994910;28;20450;-74
2022/07/20 06:37:18;;;;;;;31.97;18.10;;;;;;;;;;4994755;28;20463;-74
2022/07/20 06:39:44;;;;;;;25.93;19.10;;;;;;;;;;4994690;28;20562;-74
2022/07/20 06:42:11;;;;;;;26.53;18.20;;;;;;;;;;4994612;28;20422;-74
2022/07/20 06:44:37;;;;;;;29.57;17.03;;;;;;;;;;4994402;28;20435;-74
2022/07/20 06:47:03;;;;;;;22.47;17.10;;;;;;;;;;4977174;28;20761;-74
2022/07/20 06:49:29;;;;;;;22.97;17.47;;;;;;;;;;4977154;28;20938;-75
2022/07/20 06:51:55;;;;;;;31.83;18.80;;;;;;;;;;4994415;28;20502;-74
2022/07/20 06:54:22;;;;;;;22.30;16.50;;;;;;;;;;4994108;28;20469;-74
2022/07/20 06:56:47;;;;;;;22.90;18.27;;;;;;;;;;4994480;28;20462;-74
2022/07/20 06:59:13;;;;;;;20.80;16.90;;;;;;;;;;4994490;28;20422;-74
2022/07/20 07:01:39;;;;;;;22.80;16.17;;;;;;;;;;4994392;28;20408;-74
2022/07/20 07:04:06;;;;;;;19.90;16.90;;;;;;;;;;4993691;28;20956;-74
2022/07/20 07:06:32;;;;;;;21.10;16.33;;;;;;;;;;4976975;28;20419;-74
2022/07/20 07:08:59;;;;;;;21.83;17.80;;;;;;;;;;4995979;28;20466;-74
2022/07/20 07:11:25;;;;;;;20.57;17.00;;;;;;;;;;4994862;28;20415;-75
2022/07/20 07:13:51;;;;;;;25.40;19.20;;;;;;;;;;4993712;28;20430;-75
2022/07/20 07:16:17;;;;;;;24.00;17.23;;;;;;;;;;4994163;28;20416;-75
2022/07/20 07:18:43;;;;;;;21.83;16.10;;;;;;;;;;4994269;28;20483;-75
2022/07/20 07:21:09;;;;;;;18.63;16.10;;;;;;;;;;5004638;28;20753;-74
2022/07/20 07:23:35;;;;;;;24.37;17.53;;;;;;;;;;5013548;28;20521;-75
2022/07/20 07:26:01;;;;;;;17.90;15.93;;;;;;;;;;5013866;28;20442;-74
2022/07/20 07:28:27;;;;;;;18.70;15.50;;;;;;;;;;5013452;28;20410;-74
2022/07/20 07:30:53;;;;;;;20.63;17.10;;;;;;;;;;5013511;28;20413;-73
2022/07/20 07:33:25;;;;;;;22.73;16.53;;;;;;;;;;4995679;28;20522;-73
2022/07/20 07:35:54;;;;;;;22.30;16.60;;;;;;;;;;4995691;28;20415;-73
2022/07/20 07:38:20;;;;;;;18.40;15.00;;;;;;;;;;5013443;28;20502;-73
2022/07/20 07:40:47;;;;;;;24.20;15.17;;;;;;;;;;5013491;28;20403;-72
2022/07/20 07:43:13;;;;;;;17.07;15.20;;;;;;;;;;5008287;28;20989;-73
2022/07/20 07:45:39;;;;;;;17.07;15.07;;;;;;;;;;5003808;28;20412;-72
2022/07/20 07:48:09;;;;;;;26.87;16.10;;;;;;;;;;4989989;28;20430;-72
2022/07/20 07:50:36;;;;;;;23.70;14.43;;;;;;;;;;5013158;28;20476;-73
2022/07/20 07:53:01;;;;;;;22.03;13.00;;;;;;;;;;5012888;28;20434;-73
2022/07/20 07:55:27;;;;;;;19.17;14.90;;;;;;;;;;5013385;28;20522;-73
2022/07/20 07:57:53;;;;;;;21.43;15.07;;;;;;;;;;5013216;28;20466;-73
2022/07/20 08:00:20;;;;;;;18.73;14.20;;;;;;;;;;5013008;28;20410;-73
2022/07/20 08:02:46;;;;;;;18.63;15.00;;;;;;;;;;5012891;28;20427;-73
2022/07/20 08:05:12;;;;;;;19.70;15.63;;;;;;;;;;5013279;28;20895;-73
2022/07/20 08:07:40;;;;;;;18.73;14.80;;;;;;;;;;5013141;28;20417;-73
2022/07/20 08:10:07;;;;;;;19.60;14.80;;;;;;;;;;5009385;28;20798;-73
2022/07/20 08:12:33;;;;;;;22.43;15.77;;;;;;;;;;5007978;28;20415;-73
2022/07/20 08:14:59;;;;;;;26.47;16.03;;;;;;;;;;5002385;28;20414;-73
2022/07/20 08:17:25;;;;;;;22.43;17.00;;;;;;;;;;5003631;28;20997;-73
2022/07/20 08:19:51;;;;;;;18.80;15.03;;;;;;;;;;5002567;28;20422;-73
2022/07/20 08:22:18;;;;;;;20.47;16.40;;;;;;;;;;4996766;28;20473;-73
2022/07/20 08:24:44;;;;;;;23.37;16.43;;;;;;;;;;4993318;28;20431;-73
2022/07/20 08:27:10;;;;;;;23.87;16.83;;;;;;;;;;4993517;28;20407;-75
2022/07/20 08:29:36;;;;;;;26.53;18.37;;;;;;;;;;4993862;28;20415;-74
2022/07/20 08:32:02;;;;;;;25.60;17.90;;;;;;;;;;4993864;28;20477;-74
2022/07/20 08:34:28;;;;;;;24.00;16.87;;;;;;;;;;4992956;28;20435;-75
2022/07/20 08:36:54;;;;;;;25.67;19.23;;;;;;;;;;4993451;28;20463;-76
2022/07/20 08:39:20;;;;;;;24.50;18.93;;;;;;;;;;4993505;28;20411;-76
2022/07/20 08:41:47;;;;;;;22.50;17.13;;;;;;;;;;4996294;28;20418;-76
2022/07/20 08:44:13;;;;;;;22.00;16.80;;;;;;;;;;5005781;28;20445;-77
2022/07/20 08:46:41;;;;;;;18.63;16.37;;;;;;;;;;5016185;28;20450;-76
2022/07/20 08:49:07;;;;;;;26.50;17.27;;;;;;;;;;5008882;28;20795;-77
2022/07/20 08:51:33;;;;;;;21.67;15.90;;;;;;;;;;5011054;28;20521;-77
2022/07/20 08:54:00;;;;;;;19.60;14.87;;;;;;;;;;5010484;28;20538;-77
2022/07/20 08:56:26;;;;;;;24.83;16.70;;;;;;;;;;5005134;28;20423;-79
2022/07/20 08:58:53;;;;;;;24.03;16.40;;;;;;;;;;5014353;28;20442;-77
2022/07/20 09:01:19;;;;;;;27.40;17.47;;;;;;;;;;5013614;28;20449;-77
2022/07/20 09:04:04;;;;;;;20.77;17.20;;;;;;;;;;5013000;28;20575;-76
2022/07/20 09:06:30;;;;;;;21.20;16.33;;;;;;;;;;5012162;28;20767;-77
2022/07/20 09:08:59;;;;;;;24.77;17.07;;;;;;;;;;5011626;28;20525;-76
2022/07/20 09:11:26;;;;;;;19.30;17.10;;;;;;;;;;5013297;28;20940;-78
2022/07/20 09:13:52;;;;;;;19.10;14.27;;;;;;;;;;5010080;28;20926;-77
2022/07/20 09:16:30;;;;;;;20.73;15.77;;;;;;;;;;5012923;28;20442;-77
2022/07/20 09:18:56;;;;;;;17.50;15.23;;;;;;;;;;5012612;28;20440;-77
2022/07/20 09:21:29;;;;;;;20.03;14.70;;;;;;;;;;5015198;28;20406;-77
2022/07/20 09:23:56;;;;;;;20.50;14.67;;;;;;;;;;5011075;28;20427;-79
2022/07/20 09:26:24;;;;;;;19.23;15.67;;;;;;;;;;5006602;28;20426;-77
2022/07/20 09:28:54;;;;;;;20.93;15.80;;;;;;;;;;5011606;28;20503;-78
2022/07/20 09:31:22;;;;;;;17.20;15.40;;;;;;;;;;5015040;28;20770;-79
2022/07/20 09:34:07;;;;;;;23.97;15.13;;;;;;;;;;4992224;28;20458;-78
2022/07/20 09:36:34;;;;;;;19.73;15.90;;;;;;;;;;4996008;28;20481;-77
2022/07/20 09:39:08;;;;;;;18.93;15.23;;;;;;;;;;5009639;28;20426;-79
2022/07/20 09:41:34;;;;;;;18.47;15.23;;;;;;;;;;5011630;28;20480;-80
2022/07/20 09:44:02;;;;;;;17.20;14.00;;;;;;;;;;5011149;28;20935;-77
2022/07/20 09:46:32;;;;;;;15.97;14.30;;;;;;;;;;5012038;28;20457;-77
2022/07/20 09:49:00;;;;;;;20.83;14.70;;;;;;;;;;5014339;28;20422;-78
2022/07/20 09:51:28;;;;;;;17.60;14.23;;;;;;;;;;4993501;28;20434;-77
2022/07/20 09:53:55;;;;;;;18.37;15.00;;;;;;;;;;5012261;28;20450;-79
2022/07/20 09:56:22;;;;;;;18.30;14.47;;;;;;;;;;4998145;28;20437;-77
2022/07/20 09:58:49;;;;;;;19.23;14.47;;;;;;;;;;5014758;28;20465;-79
2022/07/20 10:01:17;;;;;;;15.13;13.37;;;;;;;;;;4996684;28;20445;-76
2022/07/20 10:03:44;;;;;;;14.73;11.90;;;;;;;;;;5005397;28;20535;-76
2022/07/20 10:06:10;;;;;;;17.23;12.60;;;;;;;;;;5012160;28;20442;-76
2022/07/20 10:08:36;;;;;;;19.10;11.37;;;;;;;;;;5011607;28;20457;-78
2022/07/20 10:11:02;;;;;;;11.93;10.67;;;;;;;;;;5013500;28;20520;-80
2022/07/20 10:13:29;;;;;;;16.07;12.53;;;;;;;;;;4996469;28;20446;-76
2022/07/20 10:16:07;;;;;;;18.03;12.17;;;;;;;;;;5009901;28;20446;-77
2022/07/20 10:18:33;;;;;;;17.80;11.40;;;;;;;;;;5012192;28;20515;-76
2022/07/20 10:20:59;;;;;;;12.07;10.03;;;;;;;;;;5012453;28;20434;-77
2022/07/20 10:23:27;;;;;;;12.70;11.20;;;;;;;;;;5013296;28;20863;-79
2022/07/20 10:25:53;;;;;;;17.40;10.90;;;;;;;;;;5018217;28;20427;-76
2022/07/20 10:28:34;;;;;;;16.60;10.40;;;;;;;;;;5018478;28;20857;-77
2022/07/20 10:31:10;;;;;;;15.83;10.90;;;;;;;;;;5010358;28;20430;-78
2022/07/20 10:33:38;;;;;;;21.67;10.40;;;;;;;;;;5004014;28;20549;-78
2022/07/20 10:38:55;;;;;;;10.57;9.57;;;;;;;;;;5011474;28;20581;-77
2022/07/20 10:41:36;;;;;;;11.83;9.10;;;;;;;;;;5009821;28;20473;-75
2022/07/20 10:44:20;;;;;;;11.73;9.57;;;;;;;;;;5009465;28;20453;-74
2022/07/20 10:46:46;;;;;;;13.37;9.00;;;;;;;;;;5011980;28;20766;-76
2022/07/20 10:49:13;;;;;;;10.80;9.80;;;;;;;;;;5007301;28;20445;-76
2022/07/20 10:51:39;;;;;;;12.67;9.27;;;;;;;;;;5010933;28;20424;-77
2022/07/20 10:54:24;;;;;;;11.30;9.63;;;;;;;;;;5013650;28;20427;-76
2022/07/20 10:56:50;;;;;;;12.80;9.10;;;;;;;;;;5003548;28;20445;-77
2022/07/20 10:59:16;;;;;;;12.73;10.37;;;;;;;;;;5000911;28;20806;-79
2022/07/20 11:01:45;;;;;;;12.23;10.93;;;;;;;;;;5005171;28;20462;-78
2022/07/20 11:04:12;;;;;;;11.57;9.60;;;;;;;;;;5008858;28;20869;-79
2022/07/20 11:06:40;;;;;;;11.83;10.73;;;;;;;;;;5010599;28;20466;-77
2022/07/20 11:09:06;;;;;;;11.20;10.10;;;;;;;;;;5010291;28;20422;-76
2022/07/20 11:11:34;;;;;;;11.97;9.33;;;;;;;;;;5004658;28;21098;-76
2022/07/20 11:14:01;;;;;;;14.27;9.67;;;;;;;;;;4990767;28;20446;-78
2022/07/20 11:16:28;;;;;;;11.63;9.27;;;;;;;;;;5013608;28;20433;-77
2022/07/20 11:18:55;;;;;;;12.10;9.17;;;;;;;;;;5011108;28;20464;-75
2022/07/20 11:21:28;;;;;;;15.60;10.10;;;;;;;;;;5013552;28;20464;-78
2022/07/20 11:23:54;;;;;;;10.20;8.97;;;;;;;;;;5005706;28;20437;-75
2022/07/20 11:26:21;;;;;;;10.70;9.60;;;;;;;;;;4988952;28;20858;-77
2022/07/20 11:28:51;;;;;;;13.93;7.87;;;;;;;;;;5013919;28;20414;-75
2022/07/20 11:31:20;;;;;;;10.70;9.07;;;;;;;;;;5013710;28;20406;-77
2022/07/20 11:33:47;;;;;;;8.03;7.33;;;;;;;;;;5013029;28;20431;-77
2022/07/20 11:36:15;;;;;;;10.20;7.60;;;;;;;;;;5012846;28;20426;-76
2022/07/20 11:38:42;;;;;;;7.70;6.90;;;;;;;;;;4997177;28;20963;-77
2022/07/20 11:41:16;;;;;;;8.90;7.40;;;;;;;;;;5006498;28;20433;-76
2022/07/20 11:43:42;;;;;;;9.60;6.90;;;;;;;;;;4995309;28;20541;-76
2022/07/20 11:46:17;;;;;;;7.40;6.70;;;;;;;;;;4975916;28;20423;-76
2022/07/20 11:48:44;;;;;;;10.03;6.20;;;;;;;;;;4993547;28;20415;-76
2022/07/20 11:51:11;;;;;;;9.73;6.77;;;;;;;;;;4993815;28;20443;-76
2022/07/20 11:53:38;;;;;;;8.13;5.70;;;;;;;;;;4993310;28;20442;-76
2022/07/20 11:56:06;;;;;;;8.43;6.20;;;;;;;;;;4993743;28;20415;-76
2022/07/20 11:58:36;;;;;;;9.97;6.30;;;;;;;;;;4993743;28;20463;-76
2022/07/20 12:01:04;;;;;;;6.97;6.30;;;;;;;;;;4993876;28;20498;-76
2022/07/20 12:03:32;;;;;;;11.73;6.43;;;;;;;;;;4993210;28;20869;-76
2022/07/20 12:06:03;;;;;;;5.70;5.20;;;;;;;;;;4993854;28;20518;-76
2022/07/20 12:08:29;;;;;;;4.97;4.57;;;;;;;;;;4993757;28;20442;-77
2022/07/20 12:10:55;;;;;;;7.20;5.90;;;;;;;;;;4993574;28;20415;-76
2022/07/20 12:13:21;;;;;;;7.63;5.40;;;;;;;;;;4993210;28;20844;-76
2022/07/20 12:15:55;;;;;;;6.90;6.30;;;;;;;;;;4995157;28;20911;-77
2022/07/20 12:18:34;;;;;;;6.70;6.00;;;;;;;;;;4997427;28;20502;-76
2022/07/20 12:21:01;;;;;;;9.80;6.40;;;;;;;;;;4997502;28;20411;-76
2022/07/20 12:23:27;;;;;;;6.27;5.67;;;;;;;;;;4997077;28;20477;-76
2022/07/20 12:25:54;;;;;;;8.83;6.07;;;;;;;;;;4997261;28;20415;-76
2022/07/20 12:28:33;;;;;;;8.07;6.00;;;;;;;;;;4997383;28;20418;-76
2022/07/20 12:31:09;;;;;;;7.30;6.50;;;;;;;;;;4997016;28;20798;-75
2022/07/20 12:33:35;;;;;;;8.07;6.20;;;;;;;;;;4996743;28;20435;-76
2022/07/20 12:36:08;;;;;;;8.83;6.00;;;;;;;;;;4997011;28;20419;-76
2022/07/20 12:38:34;;;;;;;8.10;6.10;;;;;;;;;;5008337;28;20465;-77
2022/07/20 12:41:11;;;;;;;9.10;6.20;;;;;;;;;;5016741;28;20410;-78
2022/07/20 12:43:41;;;;;;;12.63;6.00;;;;;;;;;;4998670;28;20540;-77
2022/07/20 12:46:10;;;;;;;6.87;6.00;;;;;;;;;;5016298;28;20402;-77
2022/07/20 12:48:37;;;;;;;6.00;5.20;;;;;;;;;;5016414;28;20406;-77
2022/07/20 12:51:03;;;;;;;8.17;5.77;;;;;;;;;;5016482;28;20480;-77
2022/07/20 12:53:29;;;;;;;6.00;5.33;;;;;;;;;;5015986;28;20440;-77
2022/07/20 12:55:55;;;;;;;9.63;5.87;;;;;;;;;;5016319;28;20410;-77
2022/07/20 12:58:21;;;;;;;7.07;6.33;;;;;;;;;;5008285;28;20490;-77
2022/07/20 13:00:47;;;;;;;6.60;5.80;;;;;;;;;;5004892;28;20470;-77
2022/07/20 13:03:13;;;;;;;7.00;6.03;;;;;;;;;;5006442;28;20426;-78
2022/07/20 13:05:40;;;;;;;5.90;5.40;;;;;;;;;;4988544;28;20477;-79
2022/07/20 13:08:06;;;;;;;6.97;5.90;;;;;;;;;;5004919;28;20501;-79
2022/07/20 13:10:32;;;;;;;6.60;5.90;;;;;;;;;;4987413;28;20513;-77
2022/07/20 13:12:58;;;;;;;8.87;6.87;;;;;;;;;;5008495;28;20427;-78
2022/07/20 13:15:24;;;;;;;7.60;6.03;;;;;;;;;;4986848;28;20417;-77
2022/07/20 13:17:50;;;;;;;6.53;5.77;;;;;;;;;;4989371;28;20466;-77
2022/07/20 13:20:17;;;;;;;7.70;5.80;;;;;;;;;;4993650;28;20421;-79
2022/07/20 13:22:43;;;;;;;7.03;6.43;;;;;;;;;;5015431;28;20712;-77
2022/07/20 13:25:09;;;;;;;8.73;6.30;;;;;;;;;;5015812;28;20485;-78
2022/07/20 13:27:36;;;;;;;8.60;5.97;;;;;;;;;;5015030;28;20410;-77
2022/07/20 13:30:03;;;;;;;9.20;6.27;;;;;;;;;;5015601;28;20508;-78
2022/07/20 13:32:29;;;;;;;10.43;5.30;;;;;;;;;;5015200;28;20410;-78
2022/07/20 13:34:55;;;;;;;6.97;6.13;;;;;;;;;;5015734;28;20779;-77
2022/07/20 13:37:21;;;;;;;7.30;6.20;;;;;;;;;;5015579;28;20457;-77
2022/07/20 13:39:47;;;;;;;7.17;6.30;;;;;;;;;;5015567;28;20496;-77
2022/07/20 13:42:13;;;;;;;10.10;6.33;;;;;;;;;;5015496;28;20493;-77
2022/07/20 13:44:39;;;;;;;8.53;6.13;;;;;;;;;;5015346;28;20432;-78
2022/07/20 13:47:07;;;;;;;6.93;5.77;;;;;;;;;;5016237;28;20410;-78
2022/07/20 13:49:33;;;;;;;7.70;5.90;;;;;;;;;;5015578;28;20489;-77
2022/07/20 13:51:59;;;;;;;7.03;5.97;;;;;;;;;;5016883;28;20899;-77
2022/07/20 13:54:25;;;;;;;6.40;5.43;;;;;;;;;;5018072;28;20477;-78
2022/07/20 13:56:51;;;;;;;6.47;5.80;;;;;;;;;;5015177;28;20417;-78
2022/07/20 13:59:17;;;;;;;8.20;6.20;;;;;;;;;;5015282;28;20489;-77
2022/07/20 14:01:43;;;;;;;10.17;5.77;;;;;;;;;;5015177;28;20908;-76
2022/07/20 14:04:10;;;;;;;7.13;6.27;;;;;;;;;;5017374;28;20427;-77
2022/07/20 14:06:37;;;;;;;11.20;6.27;;;;;;;;;;5021451;28;20414;-76
2022/07/20 14:09:03;;;;;;;6.30;5.70;;;;;;;;;;5022127;28;20406;-77
2022/07/20 14:11:29;;;;;;;8.90;5.83;;;;;;;;;;5023965;28;20982;-77
2022/07/20 14:13:57;;;;;;;11.57;5.67;;;;;;;;;;5024097;28;20509;-77
2022/07/20 14:16:23;;;;;;;6.57;5.80;;;;;;;;;;5022103;28;20405;-78
2022/07/20 14:18:50;;;;;;;6.87;6.17;;;;;;;;;;5019874;28;20465;-77
2022/07/20 14:21:16;;;;;;;6.40;5.70;;;;;;;;;;5001306;28;20413;-77
2022/07/20 14:23:45;;;;;;;7.90;5.80;;;;;;;;;;5018575;28;20592;-77
2022/07/20 14:26:12;;;;;;;8.10;5.73;;;;;;;;;;5018981;28;20402;-78
2022/07/20 14:28:38;;;;;;;7.23;5.27;;;;;;;;;;5018191;28;20406;-76
2022/07/20 14:31:04;;;;;;;7.17;5.43;;;;;;;;;;4999078;28;21253;-76
2022/07/20 14:33:30;;;;;;;6.87;5.80;;;;;;;;;;5015051;28;20437;-77
2022/07/20 14:35:56;;;;;;;6.37;5.50;;;;;;;;;;4997898;28;20773;-77